Time;durP1;ratioP1;P1;durP2;ratioP2;P2;SDS_P1;SDS_P2;PMS_P1;PMS_P2;Temp;Humidity;BMP_temperature;BMP_pressure;BME280_temperature;BME280_humidity;BME280_pressure;Samples;Min_cycle;Max_cycle;Signal;HPM_P1;HPM_P2
2022/03/22 00:00:46;;;;;;;21.33;13.18;;;;;;;;;;6313855;22;20002;-79
2022/03/22 00:03:14;;;;;;;22.50;14.45;;;;;;;;;;6312733;22;20002;-82
2022/03/22 00:05:42;;;;;;;25.95;15.77;;;;;;;;;;6286887;22;19996;-81
2022/03/22 00:08:09;;;;;;;23.10;13.90;;;;;;;;;;6287371;22;20355;-82
2022/03/22 00:10:36;;;;;;;23.17;13.55;;;;;;;;;;6286699;22;20003;-81
2022/03/22 00:13:04;;;;;;;22.08;13.35;;;;;;;;;;6314409;22;19999;-82
2022/03/22 00:15:30;;;;;;;23.05;13.77;;;;;;;;;;6314014;22;20006;-82
2022/03/22 00:17:56;;;;;;;22.20;12.82;;;;;;;;;;6285996;22;20086;-82
2022/03/22 00:20:23;;;;;;;21.70;13.52;;;;;;;;;;6313477;22;20022;-81
2022/03/22 00:22:49;;;;;;;20.92;13.18;;;;;;;;;;6312906;22;19998;-82
2022/03/22 00:25:18;;;;;;;23.15;13.60;;;;;;;;;;6285672;22;20022;-82
2022/03/22 00:27:55;;;;;;;22.27;14.27;;;;;;;;;;6286315;22;19999;-82
2022/03/22 00:30:25;;;;;;;22.15;13.68;;;;;;;;;;6315224;22;19996;-82
2022/03/22 00:32:53;;;;;;;21.38;13.13;;;;;;;;;;6315013;22;20029;-82
2022/03/22 00:35:20;;;;;;;21.83;12.88;;;;;;;;;;6314304;22;20007;-81
2022/03/22 00:37:49;;;;;;;22.83;13.82;;;;;;;;;;6312872;22;20007;-82
2022/03/22 00:40:17;;;;;;;21.98;14.07;;;;;;;;;;6312492;22;19999;-82
2022/03/22 00:42:46;;;;;;;21.00;14.18;;;;;;;;;;6312514;22;20438;-82
2022/03/22 00:45:12;;;;;;;22.80;12.50;;;;;;;;;;6312267;22;20491;-82
2022/03/22 00:47:38;;;;;;;21.10;13.52;;;;;;;;;;6312446;22;20024;-79
2022/03/22 00:50:04;;;;;;;19.13;13.52;;;;;;;;;;6312007;22;20080;-82
2022/03/22 00:52:32;;;;;;;21.20;13.63;;;;;;;;;;6285201;22;20203;-82
2022/03/22 00:54:58;;;;;;;20.90;13.45;;;;;;;;;;6312575;22;19999;-82
2022/03/22 00:57:24;;;;;;;19.27;12.68;;;;;;;;;;6311664;22;20003;-81
2022/03/22 01:00:04;;;;;;;23.77;14.10;;;;;;;;;;6284318;22;20003;-82
2022/03/22 01:02:31;;;;;;;24.83;14.20;;;;;;;;;;6312417;22;20007;-82
2022/03/22 01:04:57;;;;;;;19.00;13.27;;;;;;;;;;6316807;22;20396;-81
2022/03/22 01:07:23;;;;;;;21.45;14.43;;;;;;;;;;6316913;22;19995;-81
2022/03/22 01:09:50;;;;;;;22.58;13.30;;;;;;;;;;6290226;22;20063;-82
2022/03/22 01:12:16;;;;;;;21.33;13.13;;;;;;;;;;6317631;22;20007;-82
2022/03/22 01:14:42;;;;;;;20.38;13.70;;;;;;;;;;6318248;22;20330;-82
2022/03/22 01:17:08;;;;;;;23.20;13.57;;;;;;;;;;6288874;22;20007;-82
2022/03/22 01:19:35;;;;;;;23.80;13.43;;;;;;;;;;6316193;22;19995;-82
2022/03/22 01:22:02;;;;;;;22.48;13.43;;;;;;;;;;6313162;22;19995;-81
2022/03/22 01:24:29;;;;;;;24.48;14.15;;;;;;;;;;6312741;22;20006;-82
2022/03/22 01:26:55;;;;;;;20.88;13.25;;;;;;;;;;6311593;22;20003;-82
2022/03/22 01:29:21;;;;;;;22.27;13.38;;;;;;;;;;6285087;22;20011;-82
2022/03/22 01:31:49;;;;;;;20.50;12.85;;;;;;;;;;6312183;22;19999;-82
2022/03/22 01:34:15;;;;;;;21.30;13.48;;;;;;;;;;6312137;22;20033;-82
2022/03/22 01:36:41;;;;;;;21.05;12.93;;;;;;;;;;6311669;22;20365;-81
2022/03/22 01:39:07;;;;;;;21.38;13.82;;;;;;;;;;6311721;22;20003;-82
2022/03/22 01:41:34;;;;;;;23.30;13.68;;;;;;;;;;6284677;22;20055;-81
2022/03/22 01:44:00;;;;;;;19.58;13.48;;;;;;;;;;6312077;22;20003;-82
2022/03/22 01:46:27;;;;;;;22.20;13.07;;;;;;;;;;6283920;22;20057;-81
2022/03/22 01:48:54;;;;;;;22.95;13.02;;;;;;;;;;6312087;22;20007;-82
2022/03/22 01:51:23;;;;;;;21.40;13.40;;;;;;;;;;6311740;22;20003;-81
2022/03/22 01:53:50;;;;;;;22.42;13.32;;;;;;;;;;6284746;22;20003;-82
2022/03/22 01:56:16;;;;;;;23.02;13.65;;;;;;;;;;6311636;22;20260;-82
2022/03/22 01:58:43;;;;;;;18.52;11.65;;;;;;;;;;6311308;22;20324;-83
2022/03/22 02:06:40;;;;;;;21.27;13.75;;;;;;;;;;6312290;22;20014;-82
2022/03/22 02:09:06;;;;;;;21.02;12.45;;;;;;;;;;6312608;22;20295;-82
2022/03/22 02:11:32;;;;;;;20.80;13.38;;;;;;;;;;6284522;22;20006;-83
2022/03/22 02:13:58;;;;;;;21.20;13.00;;;;;;;;;;6284123;22;20332;-83
2022/03/22 02:16:24;;;;;;;24.38;13.20;;;;;;;;;;6311744;22;20070;-83
2022/03/22 02:18:51;;;;;;;24.35;14.23;;;;;;;;;;6283248;22;20030;-82
2022/03/22 02:21:20;;;;;;;20.50;13.13;;;;;;;;;;6284822;22;20233;-82
2022/03/22 02:23:49;;;;;;;22.05;12.52;;;;;;;;;;6311669;22;20074;-82
2022/03/22 02:26:16;;;;;;;19.15;12.45;;;;;;;;;;6312346;22;19999;-82
2022/03/22 02:28:43;;;;;;;21.83;13.35;;;;;;;;;;6310999;22;20019;-81
2022/03/22 02:31:09;;;;;;;20.20;13.05;;;;;;;;;;6311270;22;20005;-82
2022/03/22 02:33:35;;;;;;;20.92;13.68;;;;;;;;;;6310856;22;20027;-82
2022/03/22 02:36:02;;;;;;;19.50;12.48;;;;;;;;;;6310937;22;20034;-83
2022/03/22 02:38:28;;;;;;;22.00;12.80;;;;;;;;;;6310888;22;20007;-83
2022/03/22 02:40:54;;;;;;;19.48;13.35;;;;;;;;;;6283491;22;20015;-81
2022/03/22 02:43:20;;;;;;;22.13;12.57;;;;;;;;;;6311539;22;19999;-81
2022/03/22 02:45:46;;;;;;;21.27;12.88;;;;;;;;;;6310986;22;20000;-83
2022/03/22 02:48:12;;;;;;;21.40;13.23;;;;;;;;;;6283379;22;20080;-83
2022/03/22 02:50:38;;;;;;;23.63;14.02;;;;;;;;;;6311032;22;20078;-83
2022/03/22 02:53:04;;;;;;;18.60;13.02;;;;;;;;;;6283261;22;20077;-82
2022/03/22 02:55:32;;;;;;;22.33;13.73;;;;;;;;;;6311093;22;20254;-82
2022/03/22 02:57:58;;;;;;;20.30;12.82;;;;;;;;;;6310137;22;20014;-82
2022/03/22 03:00:26;;;;;;;20.63;12.57;;;;;;;;;;6310339;22;19999;-83
2022/03/22 03:02:53;;;;;;;21.60;13.10;;;;;;;;;;6310817;22;20000;-82
2022/03/22 03:05:20;;;;;;;20.23;12.27;;;;;;;;;;6310168;22;20334;-79
2022/03/22 03:07:47;;;;;;;20.30;13.07;;;;;;;;;;6310587;22;19995;-81
2022/03/22 03:10:13;;;;;;;21.00;12.65;;;;;;;;;;6310579;22;19992;-83
2022/03/22 03:12:39;;;;;;;20.13;11.70;;;;;;;;;;6309973;22;20031;-81
2022/03/22 03:15:07;;;;;;;19.83;12.45;;;;;;;;;;6310788;22;20153;-82
2022/03/22 03:17:33;;;;;;;20.35;12.80;;;;;;;;;;6311571;22;20023;-82
2022/03/22 03:19:59;;;;;;;20.95;12.30;;;;;;;;;;6312791;22;19996;-82
2022/03/22 03:22:25;;;;;;;19.60;12.10;;;;;;;;;;6311778;22;19999;-83
2022/03/22 03:24:51;;;;;;;17.88;11.95;;;;;;;;;;6285320;22;19999;-83
2022/03/22 03:27:17;;;;;;;18.40;11.52;;;;;;;;;;6312490;22;19995;-83
2022/03/22 03:29:43;;;;;;;17.52;11.02;;;;;;;;;;6284653;22;20042;-83
2022/03/22 03:32:10;;;;;;;18.80;11.80;;;;;;;;;;6313860;22;20232;-83
2022/03/22 03:34:36;;;;;;;21.27;13.55;;;;;;;;;;6285126;22;20011;-83
2022/03/22 03:37:02;;;;;;;20.67;12.90;;;;;;;;;;6285713;22;20029;-82
2022/03/22 03:39:28;;;;;;;21.58;13.18;;;;;;;;;;6285347;22;19999;-83
2022/03/22 03:41:54;;;;;;;19.85;12.18;;;;;;;;;;6313005;22;19995;-82
2022/03/22 03:47:16;;;;;;;19.77;11.80;;;;;;;;;;6312623;22;20381;-83
2022/03/22 03:49:43;;;;;;;24.48;12.93;;;;;;;;;;6312369;22;20343;-82
2022/03/22 03:52:13;;;;;;;22.63;12.77;;;;;;;;;;6312386;22;20010;-83
2022/03/22 03:54:39;;;;;;;24.75;13.23;;;;;;;;;;6312723;22;20428;-83
2022/03/22 03:57:06;;;;;;;19.08;12.25;;;;;;;;;;6279044;22;20016;-81
2022/03/22 03:59:33;;;;;;;21.98;12.32;;;;;;;;;;6280319;22;20011;-82
2022/03/22 04:01:59;;;;;;;22.10;12.07;;;;;;;;;;6278906;22;20086;-83
2022/03/22 04:04:25;;;;;;;21.73;13.45;;;;;;;;;;6280946;22;20151;-83
2022/03/22 04:06:51;;;;;;;21.83;12.70;;;;;;;;;;6280354;22;20010;-83
2022/03/22 04:09:17;;;;;;;22.13;13.23;;;;;;;;;;6279081;22;20389;-83
2022/03/22 04:11:44;;;;;;;18.83;11.98;;;;;;;;;;6281524;22;19999;-82
2022/03/22 04:14:10;;;;;;;19.13;13.02;;;;;;;;;;6281938;22;20051;-83
2022/03/22 04:16:36;;;;;;;19.67;12.63;;;;;;;;;;6279094;22;20003;-83
2022/03/22 04:19:03;;;;;;;20.92;12.80;;;;;;;;;;6280537;22;19999;-83
2022/03/22 04:21:29;;;;;;;21.65;13.15;;;;;;;;;;6278532;22;20000;-82
2022/03/22 04:23:55;;;;;;;20.77;12.10;;;;;;;;;;6280540;22;20000;-83
2022/03/22 04:26:21;;;;;;;21.65;13.13;;;;;;;;;;6280802;22;20002;-83
2022/03/22 04:34:19;;;;;;;23.10;12.38;;;;;;;;;;6280293;22;20019;-83
2022/03/22 04:36:55;;;;;;;24.08;12.40;;;;;;;;;;6280370;22;20074;-83
2022/03/22 04:39:21;;;;;;;19.75;11.48;;;;;;;;;;6281456;22;20004;-83
2022/03/22 04:41:47;;;;;;;21.42;13.30;;;;;;;;;;6279764;22;20340;-83
2022/03/22 04:44:13;;;;;;;21.90;12.30;;;;;;;;;;6280418;22;19999;-83
2022/03/22 04:46:39;;;;;;;20.08;11.68;;;;;;;;;;6279812;22;19996;-83
2022/03/22 04:49:05;;;;;;;19.98;11.95;;;;;;;;;;6278224;22;20042;-81
2022/03/22 04:57:02;;;;;;;20.17;12.05;;;;;;;;;;6286934;22;20038;-83
2022/03/22 04:59:28;;;;;;;20.58;12.30;;;;;;;;;;6310663;22;20085;-82
2022/03/22 05:01:54;;;;;;;21.50;13.45;;;;;;;;;;6311141;22;20002;-82
2022/03/22 05:04:20;;;;;;;23.55;13.85;;;;;;;;;;6283070;22;20032;-83
2022/03/22 05:06:47;;;;;;;24.73;13.45;;;;;;;;;;6310616;22;19995;-81
2022/03/22 05:09:13;;;;;;;23.70;13.05;;;;;;;;;;6311139;22;20316;-80
2022/03/22 05:11:39;;;;;;;25.55;13.20;;;;;;;;;;6283826;22;20010;-83
2022/03/22 05:14:06;;;;;;;24.75;13.38;;;;;;;;;;6284043;22;20099;-82
2022/03/22 05:16:33;;;;;;;22.38;13.90;;;;;;;;;;6289031;22;20342;-83
2022/03/22 05:18:59;;;;;;;23.13;12.93;;;;;;;;;;6310785;22;19999;-83
2022/03/22 05:21:26;;;;;;;22.55;13.10;;;;;;;;;;6310694;22;20002;-83
2022/03/22 05:23:52;;;;;;;21.60;12.60;;;;;;;;;;6283864;22;20055;-82
2022/03/22 05:26:18;;;;;;;21.58;12.10;;;;;;;;;;6284325;22;20101;-83
2022/03/22 05:28:45;;;;;;;21.98;13.35;;;;;;;;;;6311650;22;20048;-84
2022/03/22 05:31:12;;;;;;;23.75;13.25;;;;;;;;;;6284064;22;20003;-83
2022/03/22 05:33:38;;;;;;;22.05;13.10;;;;;;;;;;6312143;22;19999;-84
2022/03/22 05:36:05;;;;;;;24.00;14.50;;;;;;;;;;6313426;22;20003;-83
2022/03/22 05:38:31;;;;;;;23.73;13.25;;;;;;;;;;6314179;22;20004;-83
2022/03/22 05:40:57;;;;;;;20.63;13.27;;;;;;;;;;6313353;22;20378;-83
2022/03/22 05:43:26;;;;;;;24.23;14.07;;;;;;;;;;6323991;22;20007;-79
2022/03/22 05:45:52;;;;;;;20.70;13.30;;;;;;;;;;6334950;22;19987;-80
2022/03/22 05:48:19;;;;;;;21.85;13.27;;;;;;;;;;6334421;22;20033;-80
2022/03/22 05:50:45;;;;;;;25.23;14.15;;;;;;;;;;6333596;22;20018;-80
2022/03/22 05:53:12;;;;;;;25.23;13.73;;;;;;;;;;6332640;22;20097;-82
2022/03/22 05:55:38;;;;;;;24.25;14.02;;;;;;;;;;6294813;22;20086;-83
2022/03/22 05:58:04;;;;;;;23.00;13.25;;;;;;;;;;6313218;22;20049;-82
2022/03/22 06:00:30;;;;;;;21.30;13.55;;;;;;;;;;6313713;22;20003;-83
2022/03/22 06:02:57;;;;;;;20.00;14.13;;;;;;;;;;6313717;22;20102;-83
2022/03/22 06:05:23;;;;;;;21.17;13.93;;;;;;;;;;6314640;22;19999;-83
2022/03/22 06:07:49;;;;;;;19.00;12.60;;;;;;;;;;6313021;22;20419;-84
2022/03/22 06:10:15;;;;;;;19.92;12.85;;;;;;;;;;6312269;22;19992;-83
2022/03/22 06:12:41;;;;;;;24.58;13.52;;;;;;;;;;6313551;22;20054;-83
2022/03/22 06:15:15;;;;;;;22.45;13.88;;;;;;;;;;6312217;22;19999;-83
2022/03/22 06:17:44;;;;;;;20.42;13.35;;;;;;;;;;6315013;22;19995;-83
2022/03/22 06:20:11;;;;;;;24.60;13.30;;;;;;;;;;6323141;22;20123;-80
2022/03/22 06:22:37;;;;;;;20.13;14.20;;;;;;;;;;6333154;22;20007;-82
2022/03/22 06:25:03;;;;;;;22.48;15.02;;;;;;;;;;6299856;22;20007;-83
2022/03/22 06:27:29;;;;;;;25.88;16.45;;;;;;;;;;6320945;22;20003;-81
2022/03/22 06:29:55;;;;;;;26.00;17.27;;;;;;;;;;6293363;22;20003;-83
2022/03/22 06:32:21;;;;;;;29.05;18.00;;;;;;;;;;6314267;22;20076;-83
2022/03/22 06:34:49;;;;;;;26.38;17.38;;;;;;;;;;6313187;22;19995;-83
2022/03/22 06:37:15;;;;;;;31.17;16.70;;;;;;;;;;6312707;22;20005;-83
2022/03/22 06:39:41;;;;;;;24.20;15.48;;;;;;;;;;6312792;22;20010;-82
2022/03/22 06:42:08;;;;;;;23.98;16.42;;;;;;;;;;6312557;22;19995;-83
2022/03/22 06:44:37;;;;;;;27.80;15.95;;;;;;;;;;6312096;22;19999;-83
2022/03/22 06:47:04;;;;;;;22.85;14.80;;;;;;;;;;6282719;22;19999;-83
2022/03/22 06:49:30;;;;;;;25.40;14.82;;;;;;;;;;6311889;22;19999;-83
2022/03/22 06:51:56;;;;;;;24.20;15.27;;;;;;;;;;6310884;22;20004;-83
2022/03/22 06:54:22;;;;;;;25.50;15.38;;;;;;;;;;6311881;22;20010;-83
2022/03/22 06:56:48;;;;;;;25.08;14.88;;;;;;;;;;6283605;22;20009;-83
2022/03/22 06:59:14;;;;;;;27.70;16.52;;;;;;;;;;6312015;22;20003;-83
2022/03/22 07:01:40;;;;;;;26.88;17.70;;;;;;;;;;6283655;22;20331;-83
2022/03/22 07:04:06;;;;;;;30.50;17.60;;;;;;;;;;6311900;22;19995;-83
2022/03/22 07:06:32;;;;;;;41.15;19.20;;;;;;;;;;6315002;22;19995;-83
2022/03/22 07:08:58;;;;;;;33.15;19.80;;;;;;;;;;6287744;22;20012;-83
2022/03/22 07:14:09;;;;;;;27.95;17.35;;;;;;;;;;6315477;22;20037;-83
2022/03/22 07:16:36;;;;;;;39.58;20.10;;;;;;;;;;6315459;22;19999;-83
2022/03/22 07:19:02;;;;;;;29.20;17.45;;;;;;;;;;6315656;22;20007;-83
2022/03/22 07:21:29;;;;;;;30.30;17.13;;;;;;;;;;6314733;22;20435;-83
2022/03/22 07:23:56;;;;;;;22.20;15.00;;;;;;;;;;6314505;22;19995;-82
2022/03/22 07:26:22;;;;;;;23.05;16.55;;;;;;;;;;6314661;22;19999;-83
2022/03/22 07:28:48;;;;;;;22.25;16.65;;;;;;;;;;6314656;22;20003;-84
2022/03/22 07:31:15;;;;;;;23.77;15.48;;;;;;;;;;6314777;22;19999;-83
2022/03/22 07:33:41;;;;;;;25.08;16.80;;;;;;;;;;6315211;22;20003;-83
2022/03/22 07:36:07;;;;;;;24.33;16.85;;;;;;;;;;6315381;22;20033;-83
2022/03/22 07:38:33;;;;;;;23.58;16.55;;;;;;;;;;6314519;22;20003;-82
2022/03/22 07:40:59;;;;;;;22.05;16.30;;;;;;;;;;6287973;22;20003;-83
2022/03/22 07:43:26;;;;;;;23.42;16.95;;;;;;;;;;6315729;22;20331;-83
2022/03/22 07:45:52;;;;;;;22.83;16.13;;;;;;;;;;6288862;22;20038;-84
2022/03/22 07:48:19;;;;;;;24.13;16.90;;;;;;;;;;6316440;22;19999;-84
2022/03/22 07:53:30;;;;;;;27.05;17.65;;;;;;;;;;6315301;22;20080;-84
2022/03/22 07:55:56;;;;;;;23.15;16.65;;;;;;;;;;6315515;22;19999;-83
2022/03/22 07:58:22;;;;;;;23.60;16.80;;;;;;;;;;6315794;22;20156;-83
2022/03/22 08:00:48;;;;;;;26.65;17.70;;;;;;;;;;6314567;22;19991;-83
2022/03/22 08:03:17;;;;;;;23.42;17.92;;;;;;;;;;6287456;22;20003;-82
2022/03/22 08:05:46;;;;;;;27.90;16.50;;;;;;;;;;6314831;22;20002;-83
2022/03/22 08:08:13;;;;;;;24.23;16.58;;;;;;;;;;6315744;22;20340;-83
2022/03/22 08:10:38;;;;;;;25.00;17.48;;;;;;;;;;6314883;22;20093;-82
2022/03/22 08:13:08;;;;;;;27.65;16.90;;;;;;;;;;6287630;22;20381;-84
2022/03/22 08:15:34;;;;;;;24.90;15.95;;;;;;;;;;6314400;22;20053;-82
2022/03/22 08:18:00;;;;;;;22.33;15.75;;;;;;;;;;6313995;22;20033;-83
2022/03/22 08:20:27;;;;;;;23.35;16.55;;;;;;;;;;6313475;22;19995;-83
2022/03/22 08:22:59;;;;;;;24.55;17.35;;;;;;;;;;6314102;22;20002;-83
2022/03/22 08:25:28;;;;;;;23.97;16.33;;;;;;;;;;6286130;22;20006;-82
2022/03/22 08:27:55;;;;;;;25.30;17.23;;;;;;;;;;6312737;22;19999;-83
2022/03/22 08:30:22;;;;;;;25.42;17.38;;;;;;;;;;6313365;22;20343;-83
2022/03/22 08:32:49;;;;;;;25.48;18.08;;;;;;;;;;6287035;22;19999;-83
2022/03/22 08:35:15;;;;;;;26.38;18.08;;;;;;;;;;6285716;22;19999;-83
2022/03/22 08:37:41;;;;;;;30.90;18.77;;;;;;;;;;6313238;22;19999;-83
2022/03/22 08:40:07;;;;;;;26.30;18.27;;;;;;;;;;6312480;22;20026;-81
2022/03/22 08:42:33;;;;;;;23.42;17.58;;;;;;;;;;6286187;22;19999;-83
2022/03/22 08:44:59;;;;;;;25.10;17.92;;;;;;;;;;6312206;22;20000;-83
2022/03/22 08:47:27;;;;;;;22.83;17.08;;;;;;;;;;6312636;22;19995;-84
2022/03/22 08:49:53;;;;;;;25.35;17.13;;;;;;;;;;6285437;22;20010;-83
2022/03/22 08:52:19;;;;;;;24.38;16.95;;;;;;;;;;6312879;22;20003;-83
2022/03/22 08:54:45;;;;;;;24.40;17.00;;;;;;;;;;6285452;22;20007;-83
2022/03/22 08:57:11;;;;;;;23.90;16.85;;;;;;;;;;6313911;22;20508;-81
2022/03/22 08:59:37;;;;;;;22.95;17.65;;;;;;;;;;6285397;22;20094;-81
2022/03/22 09:02:03;;;;;;;26.13;17.38;;;;;;;;;;6312940;22;19996;-82
2022/03/22 09:07:14;;;;;;;23.77;16.80;;;;;;;;;;6314322;22;20015;-83
2022/03/22 09:09:40;;;;;;;22.27;17.00;;;;;;;;;;6312626;22;20007;-83
2022/03/22 09:12:06;;;;;;;28.10;17.35;;;;;;;;;;6314152;22;20446;-82
2022/03/22 09:14:32;;;;;;;23.45;16.80;;;;;;;;;;6286502;22;20438;-84
2022/03/22 09:16:58;;;;;;;20.70;15.45;;;;;;;;;;6312280;22;19999;-83
2022/03/22 09:19:24;;;;;;;21.75;16.02;;;;;;;;;;6312281;22;20011;-82
2022/03/22 09:21:50;;;;;;;21.55;16.23;;;;;;;;;;6312951;22;20359;-83
2022/03/22 09:24:16;;;;;;;20.73;15.60;;;;;;;;;;6313119;22;20093;-83
2022/03/22 09:26:42;;;;;;;20.73;15.68;;;;;;;;;;6314186;22;20031;-83
2022/03/22 09:29:08;;;;;;;25.35;14.65;;;;;;;;;;6314814;22;20021;-83
2022/03/22 09:31:34;;;;;;;20.35;14.15;;;;;;;;;;6314206;22;19995;-83
2022/03/22 09:34:00;;;;;;;19.70;13.95;;;;;;;;;;6286499;22;20075;-84
2022/03/22 09:36:27;;;;;;;22.92;14.50;;;;;;;;;;6287269;22;20427;-82
2022/03/22 09:38:53;;;;;;;19.00;14.45;;;;;;;;;;6311489;22;20078;-84
2022/03/22 09:41:19;;;;;;;19.35;13.48;;;;;;;;;;6312262;22;20004;-83
2022/03/22 09:43:48;;;;;;;17.85;13.80;;;;;;;;;;6311113;22;20056;-83
2022/03/22 09:46:18;;;;;;;18.40;15.15;;;;;;;;;;6311605;22;20019;-82
2022/03/22 09:48:45;;;;;;;22.42;15.43;;;;;;;;;;6283570;22;20523;-83
2022/03/22 09:53:56;;;;;;;18.00;14.10;;;;;;;;;;6311923;22;20015;-84
2022/03/22 09:56:26;;;;;;;19.80;15.20;;;;;;;;;;6311190;22;20029;-83
2022/03/22 09:58:52;;;;;;;23.02;15.85;;;;;;;;;;6311191;22;20003;-84
2022/03/22 10:01:18;;;;;;;18.33;13.98;;;;;;;;;;6283985;22;20053;-83
2022/03/22 10:03:54;;;;;;;18.17;14.38;;;;;;;;;;6311580;22;19999;-84
2022/03/22 10:06:22;;;;;;;18.88;15.20;;;;;;;;;;6311175;22;20458;-83
2022/03/22 10:08:51;;;;;;;19.13;15.30;;;;;;;;;;6311184;22;20512;-83
2022/03/22 10:11:18;;;;;;;19.15;15.32;;;;;;;;;;6311141;22;20439;-83
2022/03/22 10:13:50;;;;;;;17.95;13.48;;;;;;;;;;6311149;22;20335;-82
2022/03/22 10:16:16;;;;;;;16.40;13.32;;;;;;;;;;6311779;22;20324;-83
2022/03/22 10:18:42;;;;;;;17.05;12.77;;;;;;;;;;6283417;22;20006;-85
2022/03/22 10:21:08;;;;;;;17.92;13.18;;;;;;;;;;6284262;22;20035;-84
2022/03/22 10:23:34;;;;;;;18.13;13.25;;;;;;;;;;6284751;22;20116;-83
2022/03/22 10:26:05;;;;;;;16.80;13.38;;;;;;;;;;6310575;22;19999;-82
2022/03/22 10:28:32;;;;;;;15.55;12.52;;;;;;;;;;6311185;22;20007;-84
2022/03/22 10:30:58;;;;;;;17.50;13.45;;;;;;;;;;6311258;22;20010;-83
2022/03/22 10:33:24;;;;;;;15.60;12.88;;;;;;;;;;6282080;22;20027;-82
2022/03/22 10:35:50;;;;;;;16.05;12.45;;;;;;;;;;6307151;22;20003;-83
2022/03/22 10:38:19;;;;;;;15.68;10.65;;;;;;;;;;6281071;22;20315;-83
2022/03/22 10:40:46;;;;;;;14.25;10.50;;;;;;;;;;6310366;22;19999;-83
2022/03/22 10:43:18;;;;;;;13.55;10.57;;;;;;;;;;6310647;22;20009;-82
2022/03/22 10:45:44;;;;;;;13.50;10.65;;;;;;;;;;6283202;22;20039;-83
2022/03/22 10:48:10;;;;;;;14.48;11.13;;;;;;;;;;6311296;22;20339;-83
2022/03/22 10:50:37;;;;;;;15.90;10.15;;;;;;;;;;6309670;22;20007;-82
2022/03/22 10:53:04;;;;;;;14.52;11.60;;;;;;;;;;6281155;22;20056;-83
2022/03/22 10:55:30;;;;;;;15.25;10.82;;;;;;;;;;6283953;22;20015;-84
2022/03/22 10:57:57;;;;;;;14.00;10.45;;;;;;;;;;6310355;22;20014;-84
2022/03/22 11:00:24;;;;;;;14.77;11.07;;;;;;;;;;6309874;22;19999;-82
2022/03/22 11:02:54;;;;;;;16.02;11.38;;;;;;;;;;6310228;22;19996;-83
2022/03/22 11:05:21;;;;;;;13.07;9.95;;;;;;;;;;6283143;22;20014;-84
2022/03/22 11:07:51;;;;;;;13.45;10.80;;;;;;;;;;6310668;22;20000;-82
2022/03/22 11:10:30;;;;;;;15.23;10.88;;;;;;;;;;6311164;22;19995;-83
2022/03/22 11:13:00;;;;;;;11.88;10.25;;;;;;;;;;6285611;22;20347;-84
2022/03/22 11:15:37;;;;;;;14.80;10.27;;;;;;;;;;6307930;22;19999;-83
2022/03/22 11:18:05;;;;;;;13.05;10.43;;;;;;;;;;6310467;22;19995;-82
2022/03/22 11:20:31;;;;;;;13.80;9.82;;;;;;;;;;6309582;22;19995;-82
2022/03/22 11:23:00;;;;;;;13.68;10.52;;;;;;;;;;6283562;22;20013;-83
2022/03/22 11:25:30;;;;;;;15.57;10.80;;;;;;;;;;6310668;22;19995;-81
2022/03/22 11:27:58;;;;;;;13.32;10.02;;;;;;;;;;6311591;22;19999;-82
2022/03/22 11:30:25;;;;;;;13.75;11.20;;;;;;;;;;6283156;22;19999;-81
2022/03/22 11:35:49;;;;;;;13.32;10.02;;;;;;;;;;6310777;22;20014;-83
2022/03/22 11:38:34;;;;;;;15.25;9.52;;;;;;;;;;6310776;22;19996;-82
2022/03/22 11:43:45;;;;;;;14.73;9.43;;;;;;;;;;6310147;22;20042;-81
2022/03/22 11:46:11;;;;;;;12.40;9.25;;;;;;;;;;6283658;22;20030;-81
2022/03/22 11:48:39;;;;;;;12.60;9.25;;;;;;;;;;6283880;22;19999;-83
2022/03/22 11:51:06;;;;;;;14.15;10.00;;;;;;;;;;6311841;22;20385;-81
2022/03/22 11:53:41;;;;;;;13.77;10.27;;;;;;;;;;6286995;22;20007;-83
2022/03/22 11:56:07;;;;;;;14.07;9.75;;;;;;;;;;6318473;22;19999;-82
2022/03/22 11:58:33;;;;;;;14.50;9.57;;;;;;;;;;6313709;22;20456;-83
2022/03/22 12:01:01;;;;;;;12.85;8.98;;;;;;;;;;6286956;22;20019;-83
2022/03/22 12:03:35;;;;;;;11.60;8.85;;;;;;;;;;6313424;22;20000;-83
2022/03/22 12:06:16;;;;;;;11.93;8.32;;;;;;;;;;6313613;22;20504;-83
2022/03/22 12:08:42;;;;;;;13.45;9.77;;;;;;;;;;6314142;22;20006;-81
2022/03/22 12:11:12;;;;;;;10.52;8.52;;;;;;;;;;6313486;22;20423;-82
2022/03/22 12:13:45;;;;;;;11.85;8.90;;;;;;;;;;6312282;22;20026;-81
2022/03/22 12:16:11;;;;;;;14.45;8.43;;;;;;;;;;6313991;22;20007;-82
2022/03/22 12:18:40;;;;;;;12.77;8.98;;;;;;;;;;6312513;22;20417;-81
2022/03/22 12:21:16;;;;;;;12.52;9.48;;;;;;;;;;6312768;22;19995;-82
2022/03/22 12:23:42;;;;;;;12.50;9.23;;;;;;;;;;6286108;22;20083;-83
2022/03/22 12:26:10;;;;;;;13.43;9.43;;;;;;;;;;6315669;22;19996;-82
2022/03/22 12:28:45;;;;;;;15.48;8.98;;;;;;;;;;6313560;22;19999;-83
2022/03/22 12:31:11;;;;;;;10.23;7.93;;;;;;;;;;6313696;22;20010;-82
2022/03/22 12:33:38;;;;;;;10.23;8.13;;;;;;;;;;6285165;22;20007;-81
2022/03/22 12:36:04;;;;;;;10.23;7.50;;;;;;;;;;6313134;22;20030;-83
2022/03/22 12:38:30;;;;;;;12.48;8.07;;;;;;;;;;6311366;22;20082;-83
2022/03/22 12:40:56;;;;;;;12.85;8.07;;;;;;;;;;6313069;22;20314;-83
2022/03/22 12:43:22;;;;;;;9.85;7.50;;;;;;;;;;6312589;22;19999;-83
2022/03/22 12:45:49;;;;;;;12.90;7.88;;;;;;;;;;6286037;22;19995;-82
2022/03/22 12:48:18;;;;;;;10.15;7.70;;;;;;;;;;6314564;22;20004;-83
2022/03/22 12:50:44;;;;;;;11.02;7.57;;;;;;;;;;6287168;22;20007;-83
2022/03/22 12:53:10;;;;;;;11.10;7.80;;;;;;;;;;6314312;22;20010;-82
2022/03/22 12:55:40;;;;;;;10.65;7.95;;;;;;;;;;6315516;22;19995;-82
2022/03/22 12:58:06;;;;;;;11.35;8.05;;;;;;;;;;6314312;22;20462;-83
2022/03/22 13:00:35;;;;;;;12.43;7.57;;;;;;;;;;6285828;22;20008;-81
2022/03/22 13:03:06;;;;;;;12.00;7.55;;;;;;;;;;6323156;22;20006;-82
2022/03/22 13:05:32;;;;;;;12.32;8.25;;;;;;;;;;6334717;22;20080;-79
2022/03/22 13:07:58;;;;;;;11.70;7.78;;;;;;;;;;6334938;22;19991;-80
2022/03/22 13:13:19;;;;;;;10.77;7.60;;;;;;;;;;6332946;22;20030;-82
2022/03/22 13:15:52;;;;;;;10.60;7.35;;;;;;;;;;6314738;22;20006;-83
2022/03/22 13:18:17;;;;;;;11.90;7.32;;;;;;;;;;6313741;22;20074;-82
2022/03/22 13:20:44;;;;;;;8.73;7.30;;;;;;;;;;6313209;22;20003;-83
2022/03/22 13:23:14;;;;;;;10.85;6.80;;;;;;;;;;6284652;22;20006;-82
2022/03/22 13:25:41;;;;;;;11.55;7.85;;;;;;;;;;6311898;22;19995;-82
2022/03/22 13:28:09;;;;;;;10.85;8.05;;;;;;;;;;6286110;22;20339;-82
2022/03/22 13:30:35;;;;;;;10.52;8.00;;;;;;;;;;6312361;22;19999;-81
2022/03/22 13:33:13;;;;;;;11.27;7.32;;;;;;;;;;6312464;22;19991;-81
2022/03/22 13:35:40;;;;;;;11.23;7.65;;;;;;;;;;6314591;22;20003;-82
2022/03/22 13:38:07;;;;;;;11.20;7.85;;;;;;;;;;6297601;22;19998;-80
2022/03/22 13:40:37;;;;;;;10.50;8.10;;;;;;;;;;6334669;22;19991;-79
2022/03/22 13:43:05;;;;;;;13.60;8.57;;;;;;;;;;6331264;22;20029;-81
2022/03/22 13:45:31;;;;;;;13.00;8.57;;;;;;;;;;6307191;22;19995;-81
2022/03/22 13:47:58;;;;;;;11.32;7.97;;;;;;;;;;6317168;22;20486;-82
2022/03/22 13:50:26;;;;;;;13.02;8.20;;;;;;;;;;6312040;22;19995;-82
2022/03/22 13:52:59;;;;;;;11.45;8.20;;;;;;;;;;6286391;22;20023;-82
2022/03/22 13:55:26;;;;;;;11.30;7.93;;;;;;;;;;6311952;22;20000;-83
2022/03/22 13:57:54;;;;;;;11.98;7.80;;;;;;;;;;6311888;22;20037;-82
2022/03/22 14:00:20;;;;;;;11.05;8.18;;;;;;;;;;6311479;22;20038;-83
2022/03/22 14:02:47;;;;;;;11.45;8.35;;;;;;;;;;6310732;22;20121;-82
2022/03/22 14:05:13;;;;;;;11.20;7.88;;;;;;;;;;6283952;22;20029;-82
2022/03/22 14:07:56;;;;;;;11.85;8.40;;;;;;;;;;6311528;22;20334;-82
2022/03/22 14:10:22;;;;;;;11.27;8.23;;;;;;;;;;6283016;22;19999;-83
2022/03/22 14:12:48;;;;;;;12.32;8.25;;;;;;;;;;6311817;22;20070;-82
2022/03/22 14:15:15;;;;;;;9.93;7.75;;;;;;;;;;6310836;22;20067;-82
2022/03/22 14:17:44;;;;;;;10.38;8.10;;;;;;;;;;6310103;22;20045;-82
2022/03/22 14:20:12;;;;;;;11.73;8.18;;;;;;;;;;6283188;22;20014;-81
2022/03/22 14:22:38;;;;;;;11.05;8.30;;;;;;;;;;6311199;22;20000;-82
2022/03/22 14:25:05;;;;;;;11.73;8.02;;;;;;;;;;6283615;22;19999;-81
2022/03/22 14:27:31;;;;;;;11.30;7.88;;;;;;;;;;6283363;22;20007;-82
2022/03/22 14:29:58;;;;;;;12.52;8.48;;;;;;;;;;6310511;22;20011;-82
2022/03/22 14:32:24;;;;;;;12.90;9.07;;;;;;;;;;6311047;22;20010;-82
2022/03/22 14:37:35;;;;;;;11.50;8.60;;;;;;;;;;6309945;22;20058;-82
2022/03/22 14:40:01;;;;;;;10.82;8.63;;;;;;;;;;6311288;22;20331;-82
2022/03/22 14:42:27;;;;;;;10.75;7.97;;;;;;;;;;6311423;22;19999;-82
2022/03/22 14:44:53;;;;;;;12.52;8.50;;;;;;;;;;6283574;22;20003;-82
2022/03/22 14:47:20;;;;;;;12.77;9.00;;;;;;;;;;6284237;22;20500;-82
2022/03/22 14:49:46;;;;;;;12.18;9.05;;;;;;;;;;6310481;22;19999;-82
2022/03/22 14:54:57;;;;;;;12.07;9.02;;;;;;;;;;6311976;22;20018;-82
2022/03/22 15:00:08;;;;;;;11.65;9.23;;;;;;;;;;6311307;22;20018;-82
2022/03/22 15:02:39;;;;;;;13.48;9.30;;;;;;;;;;6311014;22;20000;-83
2022/03/22 15:05:33;;;;;;;11.85;9.05;;;;;;;;;;6284029;22;20382;-82
2022/03/22 15:07:54;;;;;;;13.25;9.10;;;;;;;;;;6310557;22;20018;-83